West Hollywood, Florida
Current Conditions -  °F | °C
As of 7:53 AM on Friday 19 Dec 2014 (Local Time) from KHWO Reporting Station
Clear Clear  
Wind Chill: 59°   Ceiling: Unl
Heat Index: 59°   Visibility: 10mi
Dew Point: 55°   Wind: 0mph
Humidity: 87%   Direction: NA
Pressure: 30.11"   Gusts: NA
Location:  25.9895°N, 80.2144°W
Report Text: KHWO 191253Z 00000KT 10SM CLR 15/13 A3011 RMK AO2 SLP195 T01500128
Loading
Personal Weather Stations






























Interactive Weather Map New forecast layout! Learn more

10-Day Weather Forecast

Advertisements
Track Severe Weather on mobile